Observation data for Hereford on 06/15/2019      Previous  Date  Next       Current Mesonet Observations  Soil Data  Daily Summary Page  Observations in Plain Language
KHES 150500Z 21008KT 23/04 A2981 RMK A01 T02280038  RH  030%=      5-min Rain = 0
KHES 150505Z 21008KT 23/04 A2981 RMK A01 T02260036  RH  029%=      5-min Rain = 0
KHES 150510Z 21008KT 23/03 A2981 RMK A01 T02260033  RH  029%=      5-min Rain = 0
KHES 150515Z 20008KT 23/03 A2981 RMK A01 T02250030  RH  028%=      5-min Rain = 0
KHES 150520Z 19008KT 23/03 A2981 RMK A01 T02260027  RH  028%=      5-min Rain = 0
KHES 150525Z 15010KT 22/05 A2982 RMK A01 T02190051  RH  035%=      5-min Rain = 0
KHES 150530Z 16011G22KT 21/06 A2982 RMK A01 T02060063  RH  040%=      5-min Rain = 0
KHES 150535Z 15014KT 22/04 A2982 RMK A01 T02190044  RH  033%=      5-min Rain = 0
KHES 150540Z 17014G19KT 23/04 A2982 RMK A01 T02280039  RH  030%=      5-min Rain = 0
KHES 150545Z 17015G20KT 23/06 A2982 RMK A01 T02320057  RH  033%=      5-min Rain = 0
KHES 150550Z 18014G20KT 23/07 A2982 RMK A01 T02310070  RH  037%=      5-min Rain = 0
KHES 150555Z 18012G18KT 23/08 A2982 RMK A01 T02280084  RH  041%=      5-min Rain = 0
KHES 150600Z 18012KT 23/10 A2982 RMK A01 T02270102  RH  047%=      5-min Rain = 0
KHES 150605Z 18012KT 23/12 A2982 RMK A01 T02250117  RH  052%=      5-min Rain = 0
KHES 150610Z 18012G17KT 22/12 A2982 RMK A01 T02240124  RH  055%=      5-min Rain = 0
KHES 150615Z 18012KT 22/13 A2982 RMK A01 T02220129  RH  058%=      5-min Rain = 0
KHES 150620Z 18012G17KT 22/13 A2982 RMK A01 T02220134  RH  060%=      5-min Rain = 0
KHES 150625Z 18012G17KT 22/14 A2982 RMK A01 T02210138  RH  062%=      5-min Rain = 0
KHES 150630Z 18012KT 22/14 A2982 RMK A01 T02220141  RH  063%=      5-min Rain = 0
KHES 150635Z 19012G18KT 22/14 A2981 RMK A01 T02220144  RH  064%=      5-min Rain = 0
KHES 150640Z 19014G22KT 22/15 A2981 RMK A01 T02230146  RH  064%=      5-min Rain = 0
KHES 150645Z 19015G20KT 22/15 A2981 RMK A01 T02240148  RH  065%=      5-min Rain = 0
KHES 150650Z 19014G22KT 22/15 A2981 RMK A01 T02240149  RH  066%=      5-min Rain = 0
KHES 150655Z 19014G19KT 22/15 A2981 RMK A01 T02230150  RH  066%=      5-min Rain = 0
KHES 150700Z 19015G22KT 22/15 A2981 RMK A01 T02220149  RH  066%=      5-min Rain = 0
KHES 150705Z 19014G20KT 22/15 A2981 RMK A01 T02230149  RH  066%=      5-min Rain = 0
KHES 150710Z 19014G21KT 22/15 A2981 RMK A01 T02230147  RH  065%=      5-min Rain = 0
KHES 150715Z 19014G22KT 22/14 A2981 RMK A01 T02240144  RH  063%=      5-min Rain = 0
KHES 150720Z 19013G19KT 22/14 A2981 RMK A01 T02240141  RH  062%=      5-min Rain = 0
KHES 150725Z 19013G18KT 22/14 A2981 RMK A01 T02230138  RH  061%=      5-min Rain = 0
KHES 150730Z 19013G19KT 22/14 A2981 RMK A01 T02230135  RH  060%=      5-min Rain = 0
KHES 150735Z 20014G21KT 22/13 A2981 RMK A01 T02230133  RH  059%=      5-min Rain = 0
KHES 150740Z 20015G21KT 22/13 A2981 RMK A01 T02240129  RH  057%=      5-min Rain = 0
KHES 150745Z 20016G22KT 23/12 A2981 RMK A01 T02260124  RH  055%=      5-min Rain = 0
KHES 150750Z 20016G21KT 23/12 A298 RMK A01 T02260118  RH  052%=      5-min Rain = 0
KHES 150755Z 20017G24KT 23/11 A298 RMK A01 T02270112  RH  050%=      5-min Rain = 0
KHES 150800Z 20014G19KT 23/11 A298 RMK A01 T02260109  RH  049%=      5-min Rain = 0
KHES 150805Z 20016G25KT 23/10 A298 RMK A01 T02270104  RH  047%=      5-min Rain = 0
KHES 150810Z 21014G22KT 23/10 A2981 RMK A01 T02260103  RH  047%=      5-min Rain = 0
KHES 150815Z 21014G19KT 22/10 A2981 RMK A01 T02240101  RH  047%=      5-min Rain = 0
KHES 150820Z 27012KT 22/10 A2983 RMK A01 T02200101  RH  048%=      5-min Rain = 0
KHES 150825Z 29010G17KT 20/10 A2984 RMK A01 T02040095  RH  051%=      5-min Rain = 0
KHES 150830Z 23016G22KT 22/09 A2983 RMK A01 T02150090  RH  046%=      5-min Rain = 0
KHES 150835Z 21014KT 22/09 A2982 RMK A01 T02170089  RH  045%=      5-min Rain = 0
KHES 150840Z 21014G20KT 22/09 A2981 RMK A01 T02170090  RH  045%=      5-min Rain = 0
KHES 150845Z 25011KT 21/09 A2983 RMK A01 T02140090  RH  046%=      5-min Rain = 0
KHES 150850Z 30006KT 20/09 A2983 RMK A01 T02010091  RH  051%=      5-min Rain = 0
KHES 150855Z 29009KT 19/09 A2984 RMK A01 T01880091  RH  055%=      5-min Rain = 0
KHES 150900Z 24007KT 19/09 A2983 RMK A01 T01850086  RH  054%=      5-min Rain = 0
KHES 150905Z 23008KT 19/08 A2982 RMK A01 T01890083  RH  052%=      5-min Rain = 0
KHES 150910Z 23007KT 19/08 A2982 RMK A01 T01920082  RH  050%=      5-min Rain = 0
KHES 150915Z 23007KT 19/08 A2982 RMK A01 T01880081  RH  051%=      5-min Rain = 0
KHES 150920Z 21009KT 19/08 A2981 RMK A01 T01900080  RH  050%=      5-min Rain = 0
KHES 150925Z 23007KT 19/08 A2982 RMK A01 T01930080  RH  049%=      5-min Rain = 0
KHES 150930Z 27006KT 18/09 A2982 RMK A01 T01780086  RH  056%=      5-min Rain = 0
KHES 150935Z 22009KT 17/08 A2981 RMK A01 T01650081  RH  059%=      5-min Rain = 0
KHES 150940Z 22008KT 18/08 A2981 RMK A01 T01790078  RH  053%=      5-min Rain = 0
KHES 150945Z 23007KT 18/08 A2982 RMK A01 T01830081  RH  053%=      5-min Rain = 0
KHES 150950Z 21007KT 18/08 A2981 RMK A01 T01820083  RH  054%=      5-min Rain = 0
KHES 150955Z 21007KT 18/09 A2982 RMK A01 T01810086  RH  055%=      5-min Rain = 0
KHES 151000Z 21007KT 18/09 A2982 RMK A01 T01770088  RH  058%=      5-min Rain = 0
KHES 151005Z 21008KT 17/09 A2981 RMK A01 T01740090  RH  059%=      5-min Rain = 0
KHES 151010Z 21008KT 17/09 A2981 RMK A01 T01740093  RH  060%=      5-min Rain = 0
KHES 151015Z 21008KT 17/09 A2981 RMK A01 T01730093  RH  061%=      5-min Rain = 0
KHES 151020Z 21009KT 17/10 A2981 RMK A01 T01740096  RH  062%=      5-min Rain = 0
KHES 151025Z 22008KT 18/10 A2981 RMK A01 T01760097  RH  062%=      5-min Rain = 0
KHES 151030Z 23008KT 17/10 A2982 RMK A01 T01720098  RH  064%=      5-min Rain = 0
KHES 151035Z 23009KT 17/10 A2982 RMK A01 T01690098  RH  065%=      5-min Rain = 0
KHES 151040Z 25008KT 17/10 A2983 RMK A01 T01700099  RH  065%=      5-min Rain = 0
KHES 151045Z 27007KT 16/10 A2983 RMK A01 T01630099  RH  068%=      5-min Rain = 0
KHES 151050Z 28007KT 16/10 A2983 RMK A01 T01550098  RH  071%=      5-min Rain = 0
KHES 151055Z 28006KT 15/10 A2983 RMK A01 T01460097  RH  075%=      5-min Rain = 0
KHES 151100Z 27009KT 15/09 A2983 RMK A01 T01450092  RH  073%=      5-min Rain = 0
KHES 151105Z 26009KT 15/08 A2983 RMK A01 T01480083  RH  067%=      5-min Rain = 0
KHES 151110Z 27008KT 15/08 A2983 RMK A01 T01450075  RH  065%=      5-min Rain = 0
KHES 151115Z 28009KT 14/07 A2983 RMK A01 T01400069  RH  064%=      5-min Rain = 0
KHES 151120Z 30010KT 14/06 A2983 RMK A01 T01350062  RH  063%=      5-min Rain = 0
KHES 151125Z 32008KT 13/06 A2984 RMK A01 T01300059  RH  064%=      5-min Rain = 0
KHES 151130Z 34009KT 13/06 A2985 RMK A01 T01250063  RH  068%=      5-min Rain = 0
KHES 151135Z 33008KT 13/07 A2985 RMK A01 T01250071  RH  072%=      5-min Rain = 0
KHES 151140Z 33008KT 12/08 A2985 RMK A01 T01220075  RH  075%=      5-min Rain = 0
KHES 151145Z 33008KT 12/08 A2986 RMK A01 T01190078  RH  078%=      5-min Rain = 0
KHES 151150Z 32008KT 12/09 A2986 RMK A01 T01210085  RH  081%=      5-min Rain = 0
KHES 151155Z 32006KT 12/09 A2986 RMK A01 T01240091  RH  083%=      5-min Rain = 0
KHES 151200Z 34003KT 13/09 A2987 RMK A01 T01250093  RH  084%=      5-min Rain = 0
KHES 151205Z 31002KT 13/10 A2987 RMK A01 T01260095  RH  083%=      5-min Rain = 0
KHES 151210Z 29003KT 13/10 A2987 RMK A01 T01270095  RH  084%=      5-min Rain = 0
KHES 151215Z 31005KT 13/10 A2987 RMK A01 T01290099  RH  085%=      5-min Rain = 0
KHES 151220Z 33004KT 13/10 A2987 RMK A01 T01340104  RH  085%=      5-min Rain = 0
KHES 151225Z 34005KT 14/11 A2987 RMK A01 T01380108  RH  085%=      5-min Rain = 0
KHES 151230Z 34006KT 15/11 A2987 RMK A01 T01460112  RH  083%=      5-min Rain = 0
KHES 151235Z 33006KT 15/11 A2987 RMK A01 T01510113  RH  081%=      5-min Rain = 0
KHES 151240Z 32008KT 15/12 A2987 RMK A01 T01540115  RH  081%=      5-min Rain = 0
KHES 151245Z 32008KT 16/12 A2987 RMK A01 T01570117  RH  080%=      5-min Rain = 0
KHES 151250Z 32010KT 16/12 A2988 RMK A01 T01610117  RH  078%=      5-min Rain = 0
KHES 151255Z 32011KT 16/12 A2988 RMK A01 T01640118  RH  077%=      5-min Rain = 0
KHES 151300Z 32011KT 17/12 A2988 RMK A01 T01670118  RH  076%=      5-min Rain = 0
KHES 151305Z 32010KT 17/12 A2987 RMK A01 T01680118  RH  075%=      5-min Rain = 0
KHES 151310Z 32011KT 17/12 A2988 RMK A01 T01700120  RH  075%=      5-min Rain = 0
KHES 151315Z 32010KT 17/12 A2988 RMK A01 T01740121  RH  074%=      5-min Rain = 0
KHES 151320Z 33011G16KT 18/12 A2988 RMK A01 T01780122  RH  073%=      5-min Rain = 0
KHES 151325Z 33012KT 18/12 A2989 RMK A01 T01810123  RH  071%=      5-min Rain = 0
KHES 151330Z 33011G17KT 19/12 A2989 RMK A01 T01850124  RH  071%=      5-min Rain = 0
KHES 151335Z 33012KT 19/13 A2988 RMK A01 T01870125  RH  070%=      5-min Rain = 0
KHES 151340Z 32012KT 19/13 A2989 RMK A01 T01900126  RH  069%=      5-min Rain = 0
KHES 151345Z 32011KT 19/13 A2989 RMK A01 T01920127  RH  069%=      5-min Rain = 0
KHES 151350Z 32011KT 20/13 A2989 RMK A01 T01960129  RH  068%=      5-min Rain = 0
KHES 151355Z 32013KT 20/13 A2989 RMK A01 T01960128  RH  067%=      5-min Rain = 0
KHES 151400Z 32013KT 20/13 A2989 RMK A01 T01990129  RH  067%=      5-min Rain = 0
KHES 151405Z 33013KT 20/13 A2989 RMK A01 T02010130  RH  066%=      5-min Rain = 0
KHES 151410Z 32012KT 21/13 A2989 RMK A01 T02060133  RH  065%=      5-min Rain = 0
KHES 151415Z 32014KT 21/13 A2989 RMK A01 T02080132  RH  064%=      5-min Rain = 0
KHES 151420Z 33012G17KT 21/14 A2989 RMK A01 T02120135  RH  064%=      5-min Rain = 0
KHES 151425Z 33013G18KT 21/13 A2989 RMK A01 T02140134  RH  063%=      5-min Rain = 0
KHES 151430Z 33013KT 22/14 A2989 RMK A01 T02160136  RH  063%=      5-min Rain = 0
KHES 151435Z 33013KT 22/14 A299 RMK A01 T02180136  RH  062%=      5-min Rain = 0
KHES 151440Z 32013KT 22/14 A299 RMK A01 T02200136  RH  061%=      5-min Rain = 0
KHES 151445Z 33012KT 22/14 A299 RMK A01 T02210136  RH  061%=      5-min Rain = 0
KHES 151450Z 32012KT 23/14 A299 RMK A01 T02250138  RH  060%=      5-min Rain = 0
KHES 151455Z 33014KT 23/14 A299 RMK A01 T02260138  RH  060%=      5-min Rain = 0
KHES 151500Z 34012KT 23/14 A299 RMK A01 T02290141  RH  060%=      5-min Rain = 0
KHES 151505Z 33013KT 23/14 A299 RMK A01 T02310140  RH  059%=      5-min Rain = 0
KHES 151510Z 33013KT 23/14 A299 RMK A01 T02320141  RH  059%=      5-min Rain = 0
KHES 151515Z 33012KT 24/14 A299 RMK A01 T02350141  RH  058%=      5-min Rain = 0
KHES 151520Z 34015KT 24/14 A299 RMK A01 T02370141  RH  057%=      5-min Rain = 0
KHES 151525Z 34014KT 24/14 A299 RMK A01 T02360140  RH  057%=      5-min Rain = 0
KHES 151530Z 34014KT 24/14 A299 RMK A01 T02410143  RH  057%=      5-min Rain = 0
KHES 151535Z 34015KT 24/14 A299 RMK A01 T02430143  RH  056%=      5-min Rain = 0
KHES 151540Z 34015KT 24/14 A299 RMK A01 T02420142  RH  056%=      5-min Rain = 0
KHES 151545Z 35014G20KT 25/14 A299 RMK A01 T02450143  RH  055%=      5-min Rain = 0
KHES 151550Z 34014KT 25/14 A299 RMK A01 T02470142  RH  054%=      5-min Rain = 0
KHES 151555Z 34012KT 25/14 A2991 RMK A01 T02490143  RH  054%=      5-min Rain = 0
KHES 151600Z 35013KT 25/14 A299 RMK A01 T02500143  RH  054%=      5-min Rain = 0
KHES 151605Z 35013KT 25/14 A299 RMK A01 T02520144  RH  053%=      5-min Rain = 0
KHES 151610Z 00013G19KT 26/15 A299 RMK A01 T02550147  RH  053%=      5-min Rain = 0
KHES 151615Z 01014G20KT 26/15 A299 RMK A01 T02580147  RH  053%=      5-min Rain = 0
KHES 151620Z 00012KT 26/15 A299 RMK A01 T02590148  RH  053%=      5-min Rain = 0
KHES 151625Z 36011KT 26/15 A2991 RMK A01 T02620150  RH  053%=      5-min Rain = 0
KHES 151630Z 02012KT 26/15 A2991 RMK A01 T02620148  RH  052%=      5-min Rain = 0
KHES 151635Z 02012KT 27/15 A2991 RMK A01 T02650151  RH  052%=      5-min Rain = 0
KHES 151640Z 01011KT 27/15 A2991 RMK A01 T02710152  RH  050%=      5-min Rain = 0
KHES 151645Z 02011KT 27/15 A2992 RMK A01 T02700149  RH  050%=      5-min Rain = 0
KHES 151650Z 02010KT 27/15 A2992 RMK A01 T02690150  RH  050%=      5-min Rain = 0
KHES 151655Z 01009KT 27/15 A2992 RMK A01 T02690152  RH  051%=      5-min Rain = 0
KHES 151700Z 02011KT 27/15 A2992 RMK A01 T02740152  RH  049%=      5-min Rain = 0
KHES 151705Z 01011KT 27/15 A2992 RMK A01 T02730152  RH  050%=      5-min Rain = 0
KHES 151710Z 00009KT 27/16 A2992 RMK A01 T02730155  RH  051%=      5-min Rain = 0
KHES 151715Z 01010G15KT 28/15 A2993 RMK A01 T02750154  RH  050%=      5-min Rain = 0
KHES 151720Z 01008KT 27/15 A2993 RMK A01 T02730152  RH  050%=      5-min Rain = 0
KHES 151725Z 01009KT 28/16 A2993 RMK A01 T02750156  RH  050%=      5-min Rain = 0
KHES 151730Z 01009KT 27/15 A2993 RMK A01 T02740154  RH  050%=      5-min Rain = 0
KHES 151735Z 02009KT 27/15 A2993 RMK A01 T02740152  RH  049%=      5-min Rain = 0
KHES 151740Z 01009KT 27/15 A2993 RMK A01 T02740152  RH  049%=      5-min Rain = 0
KHES 151745Z 01010G16KT 28/15 A2993 RMK A01 T02770154  RH  050%=      5-min Rain = 0
KHES 151750Z 36009KT 28/15 A2992 RMK A01 T02780153  RH  049%=      5-min Rain = 0
KHES 151755Z 03009G14KT 28/16 A2992 RMK A01 T02790155  RH  049%=      5-min Rain = 0
KHES 151800Z 02011KT 28/15 A2992 RMK A01 T02800154  RH  049%=      5-min Rain = 0
KHES 151805Z 36009KT 28/15 A2992 RMK A01 T02810153  RH  048%=      5-min Rain = 0
KHES 151810Z 01009KT 28/16 A2992 RMK A01 T02830156  RH  048%=      5-min Rain = 0
KHES 151815Z 01008G15KT 28/16 A2992 RMK A01 T02810155  RH  048%=      5-min Rain = 0
KHES 151820Z 01010KT 28/16 A2992 RMK A01 T02840155  RH  048%=      5-min Rain = 0
KHES 151825Z 36008KT 28/15 A2992 RMK A01 T02820151  RH  047%=      5-min Rain = 0
KHES 151830Z 01008G13KT 29/15 A2992 RMK A01 T02850151  RH  046%=      5-min Rain = 0
KHES 151835Z 01009KT 29/15 A2992 RMK A01 T02860153  RH  047%=      5-min Rain = 0
KHES 151840Z 01008G13KT 29/15 A2991 RMK A01 T02850154  RH  047%=      5-min Rain = 0
KHES 151845Z 01010G15KT 29/15 A2991 RMK A01 T02860152  RH  046%=      5-min Rain = 0
KHES 151850Z 00009KT 29/15 A2991 RMK A01 T02860152  RH  046%=      5-min Rain = 0
KHES 151855Z 01010KT 29/15 A2991 RMK A01 T02870149  RH  045%=      5-min Rain = 0
KHES 151900Z 03010G15KT 29/15 A2991 RMK A01 T02870149  RH  045%=      5-min Rain = 0
KHES 151905Z 04009KT 29/15 A299 RMK A01 T02900151  RH  045%=      5-min Rain = 0
KHES 151910Z 03009G15KT 29/15 A299 RMK A01 T02900152  RH  045%=      5-min Rain = 0
KHES 151915Z 02010KT 29/15 A299 RMK A01 T02930149  RH  044%=      5-min Rain = 0
KHES 151920Z 03009KT 29/15 A299 RMK A01 T02910153  RH  045%=      5-min Rain = 0
KHES 151925Z 02008G13KT 29/15 A299 RMK A01 T02930152  RH  044%=      5-min Rain = 0
KHES 151930Z 04010KT 29/15 A299 RMK A01 T02940152  RH  044%=      5-min Rain = 0
KHES 151935Z 04012KT 30/16 A2989 RMK A01 T02950155  RH  045%=      5-min Rain = 0
KHES 151940Z 03011KT 30/15 A2989 RMK A01 T02960152  RH  044%=      5-min Rain = 0
KHES 151945Z 04011KT 30/14 A2989 RMK A01 T02960144  RH  041%=      5-min Rain = 0
KHES 151950Z 01009KT 30/14 A2989 RMK A01 T02980143  RH  041%=      5-min Rain = 0
KHES 151955Z 01010G16KT 30/15 A2989 RMK A01 T03020147  RH  041%=      5-min Rain = 0
KHES 152000Z 02011KT 30/14 A2989 RMK A01 T03010142  RH  039%=      5-min Rain = 0
KHES 152005Z 01011G17KT 30/14 A2989 RMK A01 T03000142  RH  040%=      5-min Rain = 0
KHES 152010Z 02012KT 30/14 A2989 RMK A01 T03010143  RH  040%=      5-min Rain = 0
KHES 152015Z 01012G19KT 30/15 A2988 RMK A01 T02990145  RH  041%=      5-min Rain = 0
KHES 152020Z 02015KT 30/15 A2988 RMK A01 T03020149  RH  041%=      5-min Rain = 0
KHES 152025Z 02012G20KT 30/15 A2988 RMK A01 T02990150  RH  042%=      5-min Rain = 0
KHES 152030Z 03012G18KT 30/16 A2988 RMK A01 T03040156  RH  043%=      5-min Rain = 0
KHES 152035Z 03013G19KT 31/16 A2988 RMK A01 T03050155  RH  042%=      5-min Rain = 0
KHES 152040Z 02015G20KT 30/15 A2988 RMK A01 T03040152  RH  042%=      5-min Rain = 0
KHES 152045Z 03014G19KT 30/15 A2988 RMK A01 T02990150  RH  042%=      5-min Rain = 0
KHES 152050Z 03014KT 29/15 A2988 RMK A01 T02940149  RH  043%=      5-min Rain = 0
KHES 152055Z 03014G19KT 29/15 A2987 RMK A01 T02890149  RH  045%=      5-min Rain = 0
KHES 152100Z 03015KT 29/15 A2987 RMK A01 T02900152  RH  045%=      5-min Rain = 0
KHES 152105Z 03013G18KT 30/15 A2987 RMK A01 T02960153  RH  044%=      5-min Rain = 0
KHES 152110Z 03013G18KT 30/16 A2987 RMK A01 T02970155  RH  044%=      5-min Rain = 0
KHES 152115Z 02013G19KT 29/15 A2987 RMK A01 T02940154  RH  045%=      5-min Rain = 0
KHES 152120Z 02014KT 29/15 A2986 RMK A01 T02900149  RH  044%=      5-min Rain = 0
KHES 152125Z 03014KT 28/15 A2986 RMK A01 T02820154  RH  048%=      5-min Rain = 0
KHES 152130Z 03013G18KT 28/15 A2986 RMK A01 T02780152  RH  048%=      5-min Rain = 0
KHES 152135Z 03012G19KT 28/15 A2986 RMK A01 T02760154  RH  050%=      5-min Rain = 0
KHES 152140Z 03013KT 28/15 A2987 RMK A01 T02750153  RH  049%=      5-min Rain = 0
KHES 152145Z 04011KT 27/15 A2988 RMK A01 T02720152  RH  050%=      5-min Rain = 0
KHES 152150Z 04013G18KT 27/15 A2987 RMK A01 T02710151  RH  050%=      5-min Rain = 0
KHES 152155Z 04012G17KT 27/16 A2987 RMK A01 T02690155  RH  052%=      5-min Rain = 0
KHES 152200Z 04013KT 27/15 A2987 RMK A01 T02680152  RH  051%=      5-min Rain = 0
KHES 152205Z 04013G19KT 27/15 A2987 RMK A01 T02670154  RH  052%=      5-min Rain = 0
KHES 152210Z 04012G17KT 27/16 A2989 RMK A01 T02650159  RH  055%=      5-min Rain = 0
KHES 152215Z 05014G19KT 27/16 A2989 RMK A01 T02650159  RH  055%=      5-min Rain = 0
KHES 152220Z 05013G18KT 26/16 A2989 RMK A01 T02640159  RH  055%=      5-min Rain = 0
KHES 152225Z 05012G17KT 26/16 A2989 RMK A01 T02620158  RH  055%=      5-min Rain = 0
KHES 152230Z 07009KT 26/16 A2991 RMK A01 T02610156  RH  055%=      5-min Rain = 0
KHES 152235Z 11008KT 26/16 A2992 RMK A01 T02630155  RH  054%=      5-min Rain = 0
KHES 152240Z 11013G21KT 26/16 A2992 RMK A01 T02580161  RH  058%=      5-min Rain = 0
KHES 152245Z 09015G25KT 24/16 A2991 RMK A01 T02380163  RH  066%=      5-min Rain = 0.02
KHES 152250Z 08013G24KT 22/16 A2991 RMK A01 T02190160  RH  073%=      5-min Rain = 0.01
KHES 152255Z 03009KT 22/15 A299 RMK A01 T02190148  RH  067%=      5-min Rain = 0.02
KHES 152300Z 01014G19KT 21/14 A2992 RMK A01 T02100141  RH  068%=      5-min Rain = 0.02
KHES 152305Z 03019G25KT 21/14 A2992 RMK A01 T02060135  RH  067%=      5-min Rain = 0.03
KHES 152310Z 03022G29KT 20/11 A2991 RMK A01 T01980105  RH  057%=      5-min Rain = 0.04
KHES 152315Z 03016G23KT 19/11 A2989 RMK A01 T01930110  RH  061%=      5-min Rain = 0.03
KHES 152320Z 05011G16KT 18/11 A2989 RMK A01 T01820111  RH  066%=      5-min Rain = 0.02
KHES 152325Z 06013G18KT 19/12 A2989 RMK A01 T01870115  RH  065%=      5-min Rain = 0.01
KHES 152330Z 05012G18KT 19/13 A2988 RMK A01 T01930133  RH  071%=      5-min Rain = 0
KHES 152335Z 06011KT 20/15 A2988 RMK A01 T01950148  RH  078%=      5-min Rain = 0
KHES 152340Z 07009G15KT 20/15 A2988 RMK A01 T02010150  RH  076%=      5-min Rain = 0
KHES 152345Z 07007KT 20/15 A2988 RMK A01 T02020148  RH  074%=      5-min Rain = 0
KHES 152350Z 07003KT 21/14 A2987 RMK A01 T02050140  RH  069%=      5-min Rain = 0
KHES 152355Z 04008G15KT 20/13 A2986 RMK A01 T02010134  RH  068%=      5-min Rain = 0
KHES 160000Z 05008G14KT 20/12 A2986 RMK A01 T01970123  RH  065%=      5-min Rain = 0
KHES 160005Z 08009G15KT 20/12 A2986 RMK A01 T02010116  RH  060%=      5-min Rain = 0
KHES 160010Z 09008KT 21/11 A2986 RMK A01 T02060110  RH  056%=      5-min Rain = 0
KHES 160015Z 10006KT 21/11 A2986 RMK A01 T02110108  RH  053%=      5-min Rain = 0
KHES 160020Z 32007G13KT 21/11 A2986 RMK A01 T02100108  RH  054%=      5-min Rain = 0
KHES 160025Z 14003KT 21/10 A2985 RMK A01 T02090100  RH  051%=      5-min Rain = 0
KHES 160030Z 11002KT 22/09 A2985 RMK A01 T02220090  RH  044%=      5-min Rain = 0
KHES 160035Z 06006G11KT 23/09 A2985 RMK A01 T02300092  RH  043%=      5-min Rain = 0
KHES 160040Z 07008KT 23/09 A2985 RMK A01 T02270091  RH  043%=      5-min Rain = 0
KHES 160045Z 06009KT 23/09 A2985 RMK A01 T02330089  RH  041%=      5-min Rain = 0
KHES 160050Z 05011G16KT 23/09 A2985 RMK A01 T02330085  RH  040%=      5-min Rain = 0
KHES 160055Z 05012G17KT 23/09 A2985 RMK A01 T02310091  RH  042%=      5-min Rain = 0
KHES 160100Z 05011KT 23/09 A2985 RMK A01 T02290088  RH  042%=      5-min Rain = 0
KHES 160105Z 07009KT 23/08 A2985 RMK A01 T02330081  RH  039%=      5-min Rain = 0
KHES 160110Z 08008KT 23/08 A2985 RMK A01 T02330082  RH  039%=      5-min Rain = 0
KHES 160115Z 17012G18KT 23/10 A2986 RMK A01 T02270098  RH  046%=      5-min Rain = 0
KHES 160120Z 15011G18KT 21/11 A2986 RMK A01 T02120109  RH  054%=      5-min Rain = 0
KHES 160125Z 14008KT 21/10 A2985 RMK A01 T02140102  RH  050%=      5-min Rain = 0
KHES 160130Z 11006KT 22/10 A2985 RMK A01 T02170097  RH  048%=      5-min Rain = 0
KHES 160135Z 12006KT 22/09 A2985 RMK A01 T02200092  RH  045%=      5-min Rain = 0
KHES 160140Z 13008KT 22/09 A2986 RMK A01 T02240085  RH  042%=      5-min Rain = 0
KHES 160145Z 15010KT 22/08 A2985 RMK A01 T02240083  RH  041%=      5-min Rain = 0
KHES 160150Z 15011KT 22/09 A2985 RMK A01 T02190088  RH  044%=      5-min Rain = 0
KHES 160155Z 14010G16KT 21/09 A2985 RMK A01 T02120089  RH  047%=      5-min Rain = 0
KHES 160200Z 14010G15KT 21/09 A2985 RMK A01 T02100087  RH  047%=      5-min Rain = 0
KHES 160205Z 12010G15KT 21/09 A2985 RMK A01 T02080087  RH  047%=      5-min Rain = 0
KHES 160210Z 11010G16KT 21/08 A2986 RMK A01 T02080084  RH  046%=      5-min Rain = 0
KHES 160215Z 11008KT 21/09 A2986 RMK A01 T02080085  RH  046%=      5-min Rain = 0
KHES 160220Z 10007KT 21/09 A2986 RMK A01 T02070085  RH  047%=      5-min Rain = 0
KHES 160225Z 05006KT 20/09 A2987 RMK A01 T02040088  RH  049%=      5-min Rain = 0
KHES 160230Z 34017G23KT 19/11 A299 RMK A01 T01920106  RH  060%=      5-min Rain = 0
KHES 160235Z 36021G34KT 22/09 A2991 RMK A01 T02180087  RH  045%=      5-min Rain = 0
KHES 160240Z 35017G25KT 22/10 A2991 RMK A01 T02160095  RH  048%=      5-min Rain = 0
KHES 160245Z 35013G20KT 20/11 A2991 RMK A01 T02010107  RH  057%=      5-min Rain = 0
KHES 160250Z 35016KT 19/11 A2991 RMK A01 T01920109  RH  061%=      5-min Rain = 0
KHES 160255Z 00013KT 19/11 A2991 RMK A01 T01860112  RH  064%=      5-min Rain = 0
KHES 160300Z 35014KT 19/11 A2991 RMK A01 T01850110  RH  064%=      5-min Rain = 0
KHES 160305Z 35012KT 18/11 A2992 RMK A01 T01810114  RH  067%=      5-min Rain = 0
KHES 160310Z 36010KT 18/11 A2993 RMK A01 T01780114  RH  068%=      5-min Rain = 0
KHES 160315Z 00011KT 18/11 A2993 RMK A01 T01770111  RH  067%=      5-min Rain = 0
KHES 160320Z 00011KT 18/11 A2993 RMK A01 T01760111  RH  068%=      5-min Rain = 0
KHES 160325Z 00011KT 18/11 A2992 RMK A01 T01750112  RH  069%=      5-min Rain = 0
KHES 160330Z 00010KT 17/11 A2993 RMK A01 T01710114  RH  072%=      5-min Rain = 0
KHES 160335Z 00011KT 17/11 A2993 RMK A01 T01690114  RH  072%=      5-min Rain = 0
KHES 160340Z 00010KT 17/11 A2993 RMK A01 T01690114  RH  073%=      5-min Rain = 0
KHES 160345Z 36009KT 17/11 A2993 RMK A01 T01670114  RH  074%=      5-min Rain = 0
KHES 160350Z 00008KT 17/12 A2993 RMK A01 T01660115  RH  074%=      5-min Rain = 0
KHES 160355Z 00006KT 16/12 A2994 RMK A01 T01630116  RH  077%=      5-min Rain = 0
KHES 160400Z 01005KT 16/12 A2994 RMK A01 T01610117  RH  078%=      5-min Rain = 0
KHES 160405Z 01005KT 16/12 A2994 RMK A01 T01590118  RH  080%=      5-min Rain = 0
KHES 160410Z 35004KT 16/12 A2994 RMK A01 T01580118  RH  080%=      5-min Rain = 0
KHES 160415Z 34004KT 16/12 A2994 RMK A01 T01570119  RH  081%=      5-min Rain = 0
KHES 160420Z 35004KT 16/12 A2994 RMK A01 T01550120  RH  083%=      5-min Rain = 0
KHES 160425Z 35005KT 16/12 A2994 RMK A01 T01560120  RH  082%=      5-min Rain = 0
KHES 160430Z 34004KT 16/12 A2994 RMK A01 T01580120  RH  081%=      5-min Rain = 0
KHES 160435Z 32004KT 16/12 A2994 RMK A01 T01550120  RH  083%=      5-min Rain = 0
KHES 160440Z 32004KT 15/12 A2994 RMK A01 T01540121  RH  084%=      5-min Rain = 0
KHES 160445Z 30005KT 15/12 A2994 RMK A01 T01530120  RH  084%=      5-min Rain = 0
KHES 160450Z 30005KT 15/12 A2994 RMK A01 T01510121  RH  085%=      5-min Rain = 0
KHES 160455Z 30004KT 15/12 A2994 RMK A01 T01510122  RH  086%=      5-min Rain = 0

Page generated in 0.0225 seconds.